createdAt,value
2018-08-09T00:01:53.631Z,1017.2
2018-08-09T00:06:52.780Z,1017.3
2018-08-09T00:11:52.942Z,1017.3
2018-08-09T00:16:53.254Z,1017.1
2018-08-09T00:21:52.706Z,1017
2018-08-09T00:26:53.293Z,1017.1
2018-08-09T00:31:52.643Z,1017.1
2018-08-09T00:36:53.158Z,1017.2
2018-08-09T00:41:58.396Z,1017.2
2018-08-09T00:46:52.633Z,1017.2
2018-08-09T00:51:53.099Z,1017.2
2018-08-09T00:56:52.734Z,1017.1
2018-08-09T01:01:53.045Z,1017.1
2018-08-09T01:06:52.575Z,1017.1
2018-08-09T01:11:53.144Z,1017.1
2018-08-09T01:16:53.050Z,1017.1
2018-08-09T01:21:52.480Z,1017
2018-08-09T01:26:53.127Z,1016.9
2018-08-09T01:31:53.387Z,1016.8
2018-08-09T01:36:52.855Z,1016.7
2018-08-09T01:41:53.040Z,1016.8
2018-08-09T01:46:53.416Z,1016.8
2018-08-09T01:51:52.788Z,1016.8
2018-08-09T01:56:52.407Z,1016.8
2018-08-09T02:01:52.738Z,1016.7
2018-08-09T02:06:53.222Z,1016.6
2018-08-09T02:11:52.433Z,1016.6
2018-08-09T02:16:52.738Z,1016.7
2018-08-09T02:21:53.211Z,1016.6
2018-08-09T02:26:52.817Z,1016.5
2018-08-09T02:31:53.501Z,1016.4
2018-08-09T02:36:52.546Z,1016.4
2018-08-09T02:41:52.782Z,1016.2
2018-08-09T02:46:54.228Z,1016.3
2018-08-09T02:51:52.541Z,1016.3
2018-08-09T02:56:53.220Z,1016.4
2018-08-09T03:01:52.439Z,1016.5
2018-08-09T03:06:52.946Z,1016.4
2018-08-09T03:11:53.169Z,1016.2
2018-08-09T03:16:52.537Z,1016.1
2018-08-09T03:21:52.914Z,1016.2
2018-08-09T03:26:52.479Z,1016.2
2018-08-09T03:31:52.797Z,1016.2
2018-08-09T03:36:53.257Z,1016
2018-08-09T03:41:52.450Z,1016.2
2018-08-09T03:46:52.769Z,1016.2
2018-08-09T03:51:53.222Z,1016.3
2018-08-09T03:56:52.816Z,1016.3
2018-08-09T04:01:53.143Z,1016.1
2018-08-09T04:06:52.616Z,1016.1
2018-08-09T04:11:53.231Z,1016.2
2018-08-09T04:16:53.122Z,1016.3
2018-08-09T04:21:52.620Z,1016.3
2018-08-09T04:26:53.168Z,1016.2
2018-08-09T04:31:52.460Z,1016.2
2018-08-09T04:36:52.937Z,1016.2
2018-08-09T04:41:53.171Z,1016.3
2018-08-09T04:46:52.473Z,1016.3
2018-08-09T04:51:52.931Z,1016.3
2018-08-09T04:56:52.508Z,1016.2
2018-08-09T05:01:52.840Z,1016.1
2018-08-09T05:06:53.344Z,1016
2018-08-09T05:11:53.273Z,1016
2018-08-09T05:16:52.526Z,1016
2018-08-09T05:21:53.187Z,1015.9
2018-08-09T05:26:52.584Z,1015.9
2018-08-09T05:31:52.877Z,1015.9
2018-08-09T05:36:53.315Z,1015.9
2018-08-09T05:41:52.541Z,1015.8
2018-08-09T05:46:52.827Z,1015.7
2018-08-09T05:51:53.274Z,1015.7
2018-08-09T05:56:52.934Z,1015.6
2018-08-09T06:01:53.155Z,1015.4
2018-08-09T06:06:52.693Z,1015.5
2018-08-09T06:11:52.890Z,1015.5
2018-08-09T06:16:53.184Z,1015.5
2018-08-09T06:21:52.640Z,1015.4
2018-08-09T06:26:53.210Z,1015.3
2018-08-09T06:31:53.196Z,1015.3
2018-08-09T06:36:52.994Z,1015.3
2018-08-09T06:41:53.234Z,1015.2
2018-08-09T06:46:52.587Z,1015.1
2018-08-09T06:51:52.986Z,1015.1
2018-08-09T06:56:52.571Z,1015.2
2018-08-09T07:01:52.875Z,1015.1
2018-08-09T07:06:53.571Z,1014.9
2018-08-09T07:11:52.569Z,1014.9
2018-08-09T07:16:52.885Z,1014.9
2018-08-09T07:21:53.384Z,1014.9
2018-08-09T07:26:52.881Z,1014.9
2018-08-09T07:31:53.205Z,1015
2018-08-09T07:36:52.621Z,1015
2018-08-09T07:41:52.877Z,1014.8
2018-08-09T07:46:53.174Z,1014.7
2018-08-09T07:51:52.668Z,1014.6
2018-08-09T07:56:53.344Z,1014.6
2018-08-09T08:01:52.472Z,1014.6
2018-08-09T08:06:58.027Z,1014.4
2018-08-09T08:11:53.214Z,1014.4
2018-08-09T08:16:52.539Z,1014.4
2018-08-09T08:21:52.955Z,1014.4
2018-08-09T08:26:52.883Z,1014.4
2018-08-09T08:31:52.851Z,1014.2
2018-08-09T08:36:53.296Z,1014.2
2018-08-09T08:41:53.188Z,1014
2018-08-09T08:46:53.448Z,1013.8
2018-08-09T08:51:53.874Z,1013.6
2018-08-09T08:56:52.876Z,1013.6
2018-08-09T09:01:53.201Z,1013.6
2018-08-09T09:06:52.830Z,1013.6
2018-08-09T09:11:52.917Z,1013.5
2018-08-09T09:16:53.602Z,1013.4
2018-08-09T09:21:52.681Z,1013.4
2018-08-09T09:26:53.380Z,1013.3
2018-08-09T09:31:52.543Z,1013.2
2018-08-09T09:36:53.059Z,1013
2018-08-09T09:41:53.254Z,1012.9
2018-08-09T09:46:52.549Z,1012.9
2018-08-09T09:51:53.002Z,1012.9
2018-08-09T09:56:52.547Z,1012.9
2018-08-09T10:01:53.371Z,1012.9
2018-08-09T10:06:53.380Z,1012.1
2018-08-09T10:11:52.594Z,1011.8
2018-08-09T10:16:52.835Z,1011.7
2018-08-09T10:21:53.310Z,1011.5
2018-08-09T10:26:52.863Z,1011.3
2018-08-09T10:31:53.204Z,1011.1
2018-08-09T10:36:52.653Z,1011
2018-08-09T10:41:52.946Z,1011
2018-08-09T10:46:53.139Z,1011
2018-08-09T10:51:52.583Z,1010.7
2018-08-09T10:56:53.166Z,1010.5
2018-08-09T11:01:52.745Z,1010.4
2018-08-09T11:06:53.008Z,1010.3
2018-08-09T11:11:53.189Z,1010.2
2018-08-09T11:16:52.815Z,1010
2018-08-09T11:21:53.003Z,1009.8
2018-08-09T11:26:52.530Z,1009.5
2018-08-09T11:31:52.825Z,1009.5
2018-08-09T11:36:53.245Z,1009.5
2018-08-09T11:41:52.460Z,1009.3
2018-08-09T11:46:52.793Z,1009.2
2018-08-09T11:51:53.219Z,1008.9
2018-08-09T11:56:53.081Z,1008.7
2018-08-09T12:01:53.375Z,1008.7
2018-08-09T12:06:52.618Z,1008.7
2018-08-09T12:11:52.785Z,1008.6
2018-08-09T12:16:53.075Z,1008.4
2018-08-09T12:21:52.535Z,1008.2
2018-08-09T12:26:53.841Z,1008.1
2018-08-09T12:31:53.383Z,1008.2
2018-08-09T12:36:52.906Z,1008.1
2018-08-09T12:41:53.086Z,1008.3
2018-08-09T12:46:55.157Z,1008.2
2018-08-09T12:51:52.844Z,1008.1
2018-08-09T12:56:53.489Z,1008
2018-08-09T13:01:52.754Z,1007.8
2018-08-09T13:06:53.598Z,1007.7
2018-08-09T13:11:52.435Z,1007.6
2018-08-09T13:16:53.000Z,1007.8
2018-08-09T13:21:54.189Z,1007.8
2018-08-09T13:26:52.788Z,1007.9
2018-08-09T13:31:53.068Z,1008.2
2018-08-09T13:36:53.535Z,1008.8
2018-08-09T13:41:52.789Z,1008.8
2018-08-09T13:46:53.444Z,1009
2018-08-09T13:51:54.475Z,1009.1
2018-08-09T13:56:53.074Z,1009.1
2018-08-09T14:01:53.340Z,1009.2
2018-08-09T14:06:52.842Z,1009.1
2018-08-09T14:11:53.015Z,1009.6
2018-08-09T14:16:53.491Z,1009.8
2018-08-09T14:21:52.797Z,1009.7
2018-08-09T14:26:53.408Z,1009.8
2018-08-09T14:31:53.101Z,1009.7
2018-08-09T14:36:53.140Z,1009.9
2018-08-09T14:41:53.505Z,1009.8
2018-08-09T14:46:52.675Z,1009.5
2018-08-09T14:51:54.954Z,1009.7
2018-08-09T14:56:52.699Z,1009.8
2018-08-09T15:01:52.999Z,1009.9
2018-08-09T15:06:52.612Z,1009.9
2018-08-09T15:11:52.762Z,1009.7
2018-08-09T15:16:53.063Z,1009.7
2018-08-09T15:21:53.515Z,1009.7
2018-08-09T15:26:53.133Z,1009.6
2018-08-09T15:31:53.422Z,1009.6
2018-08-09T15:36:52.834Z,1009.5
2018-08-09T15:41:53.072Z,1009.4
2018-08-09T15:46:53.643Z,1009.5
2018-08-09T15:51:52.810Z,1009.6
2018-08-09T15:56:53.927Z,1009.6
2018-08-09T16:01:52.665Z,1009.5
2018-08-09T16:06:53.138Z,1009.6
2018-08-09T16:11:53.355Z,1009.6
2018-08-09T16:16:52.666Z,1009.5
2018-08-09T16:21:53.138Z,1009.6
2018-08-09T16:26:52.737Z,1009.4
2018-08-09T16:31:53.642Z,1009.4
2018-08-09T16:36:53.513Z,1009.4
2018-08-09T16:41:52.675Z,1009.3
2018-08-09T16:46:52.945Z,1009.3
2018-08-09T16:51:54.423Z,1009.2
2018-08-09T16:56:53.029Z,1009.2
2018-08-09T17:01:53.328Z,1009.1
2018-08-09T17:06:52.856Z,1009.3
2018-08-09T17:11:53.049Z,1009.2
2018-08-09T17:16:53.321Z,1009.2
2018-08-09T17:21:54.211Z,1009.2
2018-08-09T17:26:53.334Z,1009.3
2018-08-09T17:31:53.136Z,1009.2
2018-08-09T17:36:53.080Z,1009.2
2018-08-09T17:41:53.714Z,1009.1
2018-08-09T17:46:52.657Z,1009.2
2018-08-09T17:51:58.075Z,1009.4
2018-08-09T17:56:52.669Z,1009.5
2018-08-09T18:01:52.905Z,1009.5
2018-08-09T18:06:53.460Z,1009.5
2018-08-09T18:11:52.681Z,1009.5
2018-08-09T18:16:52.954Z,1009.6
2018-08-09T18:21:53.418Z,1009.7
2018-08-09T18:26:53.034Z,1010.3
2018-08-09T18:31:53.421Z,1010.5
2018-08-09T18:36:52.780Z,1010.6
2018-08-09T18:41:53.024Z,1010.8
2018-08-09T18:46:53.682Z,1011
2018-08-09T18:51:52.744Z,1011.1
2018-08-09T18:56:53.441Z,1011.2
2018-08-09T19:01:52.673Z,1011.5
2018-08-09T19:06:53.163Z,1011.5
2018-08-09T19:11:53.377Z,1011.6
2018-08-09T19:16:52.684Z,1011.7
2018-08-09T19:21:53.116Z,1011.7
2018-08-09T19:26:53.156Z,1011.7
2018-08-09T19:31:53.008Z,1012.3
2018-08-09T19:36:53.495Z,1012.2
2018-08-09T19:41:52.726Z,1012.2
2018-08-09T19:46:53.005Z,1012.2
2018-08-09T19:51:53.474Z,1012.4
2018-08-09T19:56:53.123Z,1012.3
2018-08-09T20:01:53.339Z,1012.4
2018-08-09T20:06:53.249Z,1012.4
2018-08-09T20:11:53.063Z,1012.5
2018-08-09T20:16:53.314Z,1012.5
2018-08-09T20:21:53.818Z,1012.6
2018-08-09T20:26:54.431Z,1012.7
2018-08-09T20:31:52.747Z,1012.8
2018-08-09T20:36:53.181Z,1012.7
2018-08-09T20:41:53.368Z,1013
2018-08-09T20:46:52.882Z,1013
2018-08-09T20:51:53.227Z,1013.1
2018-08-09T20:56:52.861Z,1013.1
2018-08-09T21:01:53.068Z,1013.2
2018-08-09T21:06:53.550Z,1013.4
2018-08-09T21:11:52.740Z,1013.5
2018-08-09T21:16:53.061Z,1013.7
2018-08-09T21:21:53.543Z,1013.8
2018-08-09T21:26:53.089Z,1013.7
2018-08-09T21:31:53.458Z,1013.9
2018-08-09T21:36:52.941Z,1014.2
2018-08-09T21:41:53.138Z,1014.3
2018-08-09T21:46:54.436Z,1014.6
2018-08-09T21:51:52.859Z,1014.7
2018-08-09T21:56:52.486Z,1014.8
2018-08-09T22:01:52.761Z,1014.9
2018-08-09T22:06:53.238Z,1015.1
2018-08-09T22:11:52.899Z,1015.1
2018-08-09T22:16:52.826Z,1015.2
2018-08-09T22:21:53.287Z,1015.1
2018-08-09T22:26:57.891Z,1015.3
2018-08-09T22:31:53.158Z,1015.3
2018-08-09T22:36:52.636Z,1015.4
2018-08-09T22:41:52.879Z,1015.4
2018-08-09T22:46:53.157Z,1015.6
2018-08-09T22:51:52.609Z,1015.6
2018-08-09T22:56:53.221Z,1015.6
2018-08-09T23:01:52.510Z,1015.6
2018-08-09T23:06:52.978Z,1015.6
2018-08-09T23:11:53.190Z,1016.4
2018-08-09T23:16:52.500Z,1016.5
2018-08-09T23:21:52.929Z,1016.6
2018-08-09T23:26:52.573Z,1016.9
2018-08-09T23:31:52.817Z,1016.9
2018-08-09T23:36:53.263Z,1017.1
2018-08-09T23:41:52.536Z,1017.2
2018-08-09T23:46:52.788Z,1017.5
2018-08-09T23:51:53.249Z,1017.4
2018-08-09T23:56:52.878Z,1017.4
